Time;durP1;ratioP1;P1;durP2;ratioP2;P2;SDS_P1;SDS_P2;PMS_P1;PMS_P2;Temp;Humidity;BMP_temperature;BMP_pressure;BME280_temperature;BME280_humidity;BME280_pressure;Samples;Min_cycle;Max_cycle;Signal;HPM_P1;HPM_P2
2023/01/20 00:00:03;;;;;;;16.27;11.85;;;2.40;99.90;;;;;;5028326;28;20284;-86
2023/01/20 00:02:30;;;;;;;20.25;12.77;;;2.20;99.90;;;;;;5030166;28;20675;-84
2023/01/20 00:04:57;;;;;;;21.17;13.63;;;;;;;;;;5027731;28;20244;-84
2023/01/20 00:07:26;;;;;;;18.42;12.57;;;;;;;;;;5028073;28;20252;-86
2023/01/20 00:09:53;;;;;;;22.50;12.48;;;2.10;99.90;;;;;;5027789;28;20264;-84
2023/01/20 00:12:19;;;;;;;15.63;11.82;;;2.10;99.90;;;;;;5027771;28;20200;-84
2023/01/20 00:14:46;;;;;;;18.25;12.35;;;1.80;99.90;;;;;;5027671;28;20632;-84
2023/01/20 00:17:13;;;;;;;19.67;12.23;;;2.40;99.90;;;;;;5026656;28;20220;-86
2023/01/20 00:19:40;;;;;;;14.25;11.25;;;2.50;99.90;;;;;;5027219;28;20247;-86
2023/01/20 00:22:07;;;;;;;21.63;13.07;;;;;;;;;;5027780;28;20238;-85
2023/01/20 00:24:35;;;;;;;13.75;11.32;;;2.10;99.90;;;;;;5026779;28;20201;-85
2023/01/20 00:27:02;;;;;;;19.88;12.45;;;2.50;99.90;;;;;;5027343;28;20652;-84
2023/01/20 00:29:29;;;;;;;12.93;10.85;;;1.80;99.90;;;;;;5025522;28;20224;-84
2023/01/20 00:31:56;;;;;;;18.27;12.43;;;2.30;99.90;;;;;;5025673;28;20635;-85
2023/01/20 00:34:23;;;;;;;18.73;12.63;;;;;;;;;;5025801;28;20200;-84
2023/01/20 00:36:50;;;;;;;25.15;14.63;;;2.40;99.90;;;;;;5025984;28;20308;-84
2023/01/20 00:39:17;;;;;;;28.83;15.07;;;2.00;99.90;;;;;;5026629;28;20192;-83
2023/01/20 00:41:45;;;;;;;20.33;12.77;;;1.90;99.90;;;;;;5025952;28;20747;-83
2023/01/20 00:44:12;;;;;;;18.38;11.95;;;2.20;99.90;;;;;;5027778;28;20236;-84
2023/01/20 00:46:39;;;;;;;18.65;11.27;;;2.30;99.90;;;;;;5027335;28;20311;-84
2023/01/20 00:49:05;;;;;;;20.70;12.05;;;2.50;99.90;;;;;;5026723;28;20299;-84
2023/01/20 00:51:32;;;;;;;19.92;11.15;;;2.70;99.90;;;;;;5026335;28;20204;-84
2023/01/20 00:54:00;;;;;;;19.55;12.88;;;2.60;99.90;;;;;;5028543;28;20212;-83
2023/01/20 00:56:27;;;;;;;16.85;11.15;;;;;;;;;;5033841;28;20221;-84
2023/01/20 00:58:56;;;;;;;22.63;12.38;;;2.20;1.00;;;;;;5029818;28;20273;-85
2023/01/20 01:01:23;;;;;;;24.50;12.65;;;2.00;99.90;;;;;;5028683;28;20237;-85
2023/01/20 01:03:52;;;;;;;20.80;12.45;;;2.40;99.90;;;;;;5026947;28;20280;-85
2023/01/20 01:06:20;;;;;;;24.52;12.32;;;;;;;;;;5026263;28;20231;-85
2023/01/20 01:08:46;;;;;;;20.05;11.98;;;1.90;99.90;;;;;;5026948;28;20295;-85
2023/01/20 01:11:14;;;;;;;21.05;11.45;;;1.20;74.20;;;;;;5025816;28;20200;-85
2023/01/20 01:13:41;;;;;;;21.98;12.20;;;2.00;13.50;;;;;;5026502;28;20208;-85
2023/01/20 01:16:12;;;;;;;19.67;11.23;;;2.20;1.00;;;;;;5026856;28;20255;-85
2023/01/20 01:18:39;;;;;;;24.55;11.68;;;1.80;1.00;;;;;;5034504;28;20189;-85
2023/01/20 01:21:08;;;;;;;19.85;12.02;;;2.60;1.00;;;;;;5032267;28;20292;-84
2023/01/20 01:23:34;;;;;;;26.13;12.25;;;1.90;91.40;;;;;;5029377;28;20224;-85
2023/01/20 01:26:01;;;;;;;22.65;11.85;;;2.20;90.30;;;;;;5028086;28;20278;-85
2023/01/20 01:28:28;;;;;;;24.35;13.45;;;;;;;;;;5027135;28;20296;-85
2023/01/20 01:30:56;;;;;;;19.95;11.63;;;;;;;;;;5027289;28;20201;-85
2023/01/20 01:33:24;;;;;;;19.98;12.40;;;2.40;1.00;;;;;;5031415;28;20265;-84
2023/01/20 01:35:58;;;;;;;23.92;13.10;;;2.00;70.30;;;;;;5021302;28;20687;-84
2023/01/20 01:38:25;;;;;;;22.02;11.95;;;;;;;;;;5024879;28;20236;-81
2023/01/20 01:40:54;;;;;;;24.25;13.00;;;1.90;83.40;;;;;;5026439;28;20266;-83
2023/01/20 01:43:23;;;;;;;19.08;11.95;;;2.40;1.00;;;;;;5025523;28;20205;-84
2023/01/20 01:45:50;;;;;;;21.42;12.88;;;1.80;1.00;;;;;;5025723;28;20215;-84
2023/01/20 01:48:20;;;;;;;18.63;11.48;;;2.20;1.00;;;;;;5026972;28;20204;-84
2023/01/20 01:50:53;;;;;;;18.27;11.25;;;1.90;79.20;;;;;;5030720;28;20207;-83
2023/01/20 01:53:21;;;;;;;20.42;12.02;;;;;;;;;;5038492;28;20216;-82
2023/01/20 01:55:51;;;;;;;19.83;11.95;;;2.50;1.00;;;;;;5039180;28;20215;-82
2023/01/20 01:58:23;;;;;;;22.27;10.88;;;2.10;1.00;;;;;;5039218;28;20189;-82
2023/01/20 02:00:50;;;;;;;18.17;11.73;;;;;;;;;;5039620;28;20205;-81
2023/01/20 02:03:17;;;;;;;15.02;10.10;;;2.40;99.90;;;;;;5038582;28;20251;-82
2023/01/20 02:05:46;;;;;;;15.73;10.20;;;2.10;1.00;;;;;;5038021;28;20267;-83
2023/01/20 02:08:14;;;;;;;12.65;9.13;;;2.10;99.90;;;;;;5031031;28;20204;-85
2023/01/20 02:10:41;;;;;;;15.20;11.65;;;2.30;99.90;;;;;;5031718;28;20200;-85
2023/01/20 02:13:08;;;;;;;17.10;11.20;;;1.70;99.90;;;;;;5035490;28;20205;-83
2023/01/20 02:15:40;;;;;;;20.23;11.63;;;1.80;99.90;;;;;;5040808;28;20188;-82
2023/01/20 02:18:27;;;;;;;21.15;10.90;;;1.80;1.00;;;;;;5041915;28;20192;-84
2023/01/20 02:21:29;;;;;;;17.15;10.40;;;1.80;1.00;;;;;;5041631;28;20244;-85
2023/01/20 02:24:25;;;;;;;19.52;11.32;;;1.80;1.00;;;;;;5033124;28;20180;-82
2023/01/20 02:27:02;;;;;;;18.85;11.02;;;1.90;1.00;;;;;;5031447;28;20259;-85
2023/01/20 02:30:05;;;;;;;23.83;11.35;;;1.60;27.60;;;;;;5030832;28;20193;-84
2023/01/20 02:32:47;;;;;;;21.60;11.35;;;1.90;1.00;;;;;;5034944;28;20204;-83
2023/01/20 02:35:24;;;;;;;18.30;10.65;;;1.90;99.90;;;;;;5037582;28;20252;-84
2023/01/20 02:38:01;;;;;;;24.15;10.98;;;1.60;1.00;;;;;;5037250;28;20284;-85
2023/01/20 02:40:34;;;;;;;19.48;11.30;;;1.80;99.90;;;;;;5032396;28;20243;-85
2023/01/20 02:43:08;;;;;;;17.38;11.50;;;1.70;1.00;;;;;;5030578;28;20272;-85
2023/01/20 02:45:43;;;;;;;18.73;10.40;;;2.00;99.90;;;;;;5029629;28;20210;-85
2023/01/20 02:48:20;;;;;;;15.10;9.35;;;2.00;99.90;;;;;;5029879;28;20574;-85
2023/01/20 02:50:56;;;;;;;15.52;9.75;;;2.20;99.90;;;;;;5038330;28;20248;-84
2023/01/20 02:53:26;;;;;;;19.30;10.75;;;2.00;99.90;;;;;;5031942;28;20250;-85
2023/01/20 02:55:55;;;;;;;18.38;10.35;;;1.70;1.00;;;;;;5029464;28;20287;-85
2023/01/20 02:58:27;;;;;;;15.60;11.15;;;1.90;1.00;;;;;;5029385;28;20272;-85
2023/01/20 03:00:58;;;;;;;15.60;9.52;;;1.70;1.00;;;;;;5030151;28;20219;-86
2023/01/20 03:03:30;;;;;;;12.50;9.32;;;1.60;1.00;;;;;;5029362;28;20563;-85
2023/01/20 03:05:59;;;;;;;16.80;10.85;;;1.90;99.90;;;;;;5033206;28;20785;-84
2023/01/20 03:08:29;;;;;;;17.05;10.73;;;1.90;1.00;;;;;;5037091;28;20228;-83
2023/01/20 03:11:02;;;;;;;19.00;9.60;;;1.70;1.00;;;;;;5031373;28;20196;-86
2023/01/20 03:13:34;;;;;;;20.40;10.45;;;2.00;1.00;;;;;;5031218;28;20219;-83
2023/01/20 03:16:06;;;;;;;11.00;8.10;;;2.10;30.00;;;;;;5029776;28;20719;-85
2023/01/20 03:18:34;;;;;;;19.33;11.27;;;2.00;99.90;;;;;;5029256;28;20243;-85
2023/01/20 03:21:03;;;;;;;18.40;9.68;;;1.90;1.00;;;;;;5028980;28;20224;-85
2023/01/20 03:23:35;;;;;;;14.23;10.75;;;1.80;4.30;;;;;;5028938;28;20635;-85
2023/01/20 03:26:06;;;;;;;15.05;10.55;;;1.70;1.00;;;;;;5029745;28;20236;-85
2023/01/20 03:28:33;;;;;;;15.48;9.75;;;1.60;1.00;;;;;;5028381;28;20188;-85
2023/01/20 03:31:03;;;;;;;27.23;11.82;;;1.70;99.90;;;;;;5028896;28;20200;-85
2023/01/20 03:33:30;;;;;;;15.80;11.13;;;;;;;;;;5029753;28;20204;-85
2023/01/20 03:36:01;;;;;;;23.38;11.15;;;1.90;1.00;;;;;;5028886;28;20251;-85
2023/01/20 03:38:28;;;;;;;24.67;11.40;;;1.90;1.00;;;;;;5031141;28;20192;-85
2023/01/20 03:41:01;;;;;;;21.98;12.30;;;1.80;17.50;;;;;;5030356;28;20211;-84
2023/01/20 03:43:34;;;;;;;23.52;12.25;;;1.60;1.00;;;;;;5030513;28;20199;-85
2023/01/20 03:46:08;;;;;;;26.42;12.73;;;1.60;41.90;;;;;;5028049;28;20234;-84
2023/01/20 03:48:42;;;;;;;22.90;13.10;;;1.60;1.00;;;;;;5028778;28;20188;-84
2023/01/20 03:51:15;;;;;;;17.98;10.88;;;1.40;33.20;;;;;;5029156;28;20196;-85
2023/01/20 03:53:48;;;;;;;24.80;13.43;;;1.60;1.00;;;;;;5027075;28;20256;-85
2023/01/20 03:56:20;;;;;;;23.13;13.80;;;1.70;98.90;;;;;;5029652;28;20255;-85
2023/01/20 03:58:51;;;;;;;23.67;12.57;;;1.60;1.00;;;;;;5032478;28;20266;-84
2023/01/20 04:01:21;;;;;;;17.35;11.85;;;1.60;99.90;;;;;;5035230;28;20209;-83
2023/01/20 04:03:52;;;;;;;25.55;13.57;;;1.80;1.00;;;;;;5036432;28;20260;-84
2023/01/20 04:06:23;;;;;;;26.77;13.60;;;1.60;1.00;;;;;;5036070;28;20220;-82
2023/01/20 04:08:55;;;;;;;27.85;15.70;;;1.70;1.00;;;;;;5036094;28;20245;-81
2023/01/20 04:11:22;;;;;;;21.75;14.02;;;;;;;;;;5036241;28;20209;-81
2023/01/20 04:13:50;;;;;;;23.50;13.70;;;1.70;1.00;;;;;;5035009;28;20205;-82
2023/01/20 04:16:18;;;;;;;26.38;15.00;;;1.60;51.60;;;;;;5035343;28;20443;-81
2023/01/20 04:18:48;;;;;;;21.27;13.02;;;1.80;99.90;;;;;;5029989;28;20205;-84
2023/01/20 04:21:24;;;;;;;22.88;14.07;;;1.60;1.00;;;;;;5033080;28;20890;-83
2023/01/20 04:23:55;;;;;;;24.55;13.63;;;1.50;1.00;;;;;;5034419;28;20228;-84
2023/01/20 04:26:25;;;;;;;26.30;15.40;;;1.30;99.90;;;;;;5034934;28;20315;-85
2023/01/20 04:28:52;;;;;;;20.77;12.40;;;;;;;;;;5037288;28;20192;-83
2023/01/20 04:31:19;;;;;;;28.27;13.90;;;1.50;99.90;;;;;;5038271;28;20221;-83
2023/01/20 04:33:46;;;;;;;25.40;14.38;;;;;;;;;;5030952;28;20208;-84
2023/01/20 04:36:13;;;;;;;29.30;14.63;;;;;;;;;;5030584;28;20292;-84
2023/01/20 04:38:41;;;;;;;27.52;14.98;;;;;;;;;;5029861;28;20212;-83
2023/01/20 04:41:11;;;;;;;23.17;13.93;;;1.50;41.60;;;;;;5029954;28;20223;-85
2023/01/20 04:43:38;;;;;;;28.73;15.63;;;;;;;;;;5029493;28;20445;-83
2023/01/20 04:46:05;;;;;;;30.23;16.65;;;;;;;;;;5034467;28;20248;-85
2023/01/20 04:48:32;;;;;;;24.20;14.20;;;;;;;;;;5029088;28;20204;-84
2023/01/20 04:51:04;;;;;;;28.65;15.30;;;1.60;94.90;;;;;;5027852;28;20264;-84
2023/01/20 04:53:31;;;;;;;28.92;15.52;;;;;;;;;;5025633;28;20442;-83
2023/01/20 04:55:59;;;;;;;36.70;19.00;;;1.40;99.90;;;;;;5021431;28;20315;-84
2023/01/20 04:58:26;;;;;;;25.17;13.88;;;1.90;99.90;;;;;;5020113;28;20208;-83
2023/01/20 05:00:53;;;;;;;32.47;15.77;;;1.70;99.90;;;;;;5021848;28;20238;-84
2023/01/20 05:03:20;;;;;;;25.15;14.98;;;;;;;;;;5022471;28;20208;-84
2023/01/20 05:05:52;;;;;;;28.13;16.27;;;1.80;99.90;;;;;;5025066;28;20295;-85
2023/01/20 05:08:19;;;;;;;24.42;14.90;;;1.60;99.90;;;;;;5025909;28;20239;-84
2023/01/20 05:10:46;;;;;;;27.05;15.10;;;1.40;99.90;;;;;;5026674;28;20211;-85
2023/01/20 05:13:14;;;;;;;27.73;15.73;;;1.70;99.90;;;;;;5026191;28;20295;-85
2023/01/20 05:15:43;;;;;;;26.90;13.80;;;1.60;1.00;;;;;;5026597;28;20219;-85
2023/01/20 05:18:10;;;;;;;27.15;15.40;;;1.30;99.90;;;;;;5023578;28;20263;-85
2023/01/20 05:20:37;;;;;;;26.33;15.43;;;1.30;99.90;;;;;;5026990;28;20663;-85
2023/01/20 05:23:04;;;;;;;29.08;15.50;;;;;;;;;;5029758;28;20227;-85
2023/01/20 05:25:31;;;;;;;27.88;14.98;;;;;;;;;;5030911;28;20291;-84
2023/01/20 05:27:59;;;;;;;30.92;15.10;;;1.40;99.90;;;;;;5057688;22;20236;-85
2023/01/20 05:30:27;;;;;;;28.45;15.38;;;1.10;99.90;;;;;;5021393;28;20201;-86
2023/01/20 05:32:55;;;;;;;35.30;16.60;;;;;;;;;;5017176;28;20667;-86
2023/01/20 05:35:22;;;;;;;29.02;16.52;;;;;;;;;;5017222;28;20240;-86
2023/01/20 05:37:52;;;;;;;27.65;15.23;;;1.30;99.90;;;;;;5016228;28;20383;-86
2023/01/20 05:40:19;;;;;;;31.27;16.88;;;0.90;99.90;;;;;;5015971;28;20304;-86
2023/01/20 05:42:45;;;;;;;33.28;16.75;;;1.60;99.90;;;;;;5016309;28;20359;-87
2023/01/20 05:45:12;;;;;;;29.15;16.73;;;0.90;99.90;;;;;;5027605;28;20248;-84
2023/01/20 05:47:40;;;;;;;28.50;17.38;;;1.30;99.90;;;;;;5026573;28;20664;-85
2023/01/20 05:50:08;;;;;;;27.70;16.08;;;1.10;99.90;;;;;;5015338;28;20299;-86
2023/01/20 05:52:35;;;;;;;27.95;16.67;;;1.00;1.00;;;;;;5015807;28;20300;-86
2023/01/20 05:55:02;;;;;;;33.33;16.35;;;1.30;1.00;;;;;;5022923;28;20201;-86
2023/01/20 05:57:29;;;;;;;28.77;16.50;;;1.50;99.90;;;;;;5038433;28;20205;-86
2023/01/20 05:59:55;;;;;;;33.53;17.08;;;0.90;1.00;;;;;;5032553;28;20307;-86
2023/01/20 06:02:22;;;;;;;24.15;16.15;;;1.00;99.90;;;;;;5028238;28;20236;-85
2023/01/20 06:04:50;;;;;;;23.42;15.85;;;0.90;99.90;;;;;;5025983;28;20204;-85
2023/01/20 06:07:17;;;;;;;23.67;13.60;;;1.00;1.00;;;;;;5016021;28;20282;-85
2023/01/20 06:09:44;;;;;;;27.75;15.80;;;1.30;1.00;;;;;;5015604;28;20272;-85
2023/01/20 06:12:14;;;;;;;33.38;18.08;;;1.00;99.90;;;;;;5013813;28;20919;-85
2023/01/20 06:14:41;;;;;;;21.98;15.18;;;;;;;;;;5015052;28;20259;-85
2023/01/20 06:17:08;;;;;;;28.65;17.10;;;0.60;1.00;;;;;;5014417;28;20275;-86
2023/01/20 06:19:34;;;;;;;33.70;16.30;;;0.80;1.00;;;;;;5015076;28;20212;-86
2023/01/20 06:22:03;;;;;;;31.27;17.38;;;1.20;1.00;;;;;;5017437;28;20399;-86
2023/01/20 06:24:30;;;;;;;32.70;18.05;;;;;;;;;;5029052;28;20192;-86
2023/01/20 06:26:57;;;;;;;26.90;15.35;;;1.10;1.00;;;;;;5022873;28;20319;-86
2023/01/20 06:29:24;;;;;;;30.65;16.75;;;1.20;1.00;;;;;;5015234;28;20232;-86
2023/01/20 06:31:51;;;;;;;32.00;16.17;;;0.80;1.00;;;;;;5016600;28;20242;-86
2023/01/20 06:34:18;;;;;;;34.60;18.02;;;;;;;;;;5016907;28;20605;-86
2023/01/20 06:36:45;;;;;;;29.20;17.40;;;0.90;99.90;;;;;;5031161;28;20315;-86
2023/01/20 06:39:13;;;;;;;34.80;16.67;;;0.90;99.90;;;;;;5036502;28;20204;-86
2023/01/20 06:41:40;;;;;;;24.40;14.85;;;0.90;1.00;;;;;;5037989;28;20208;-86
2023/01/20 06:44:07;;;;;;;36.05;17.92;;;;;;;;;;5033556;28;20240;-85
2023/01/20 06:46:34;;;;;;;28.90;17.23;;;0.90;99.90;;;;;;5019616;28;20711;-87
2023/01/20 06:49:01;;;;;;;34.47;19.15;;;;;;;;;;5018284;28;20210;-86
2023/01/20 06:51:29;;;;;;;33.53;18.15;;;0.60;1.00;;;;;;5018524;28;20292;-87
2023/01/20 06:53:57;;;;;;;32.55;18.73;;;0.70;1.00;;;;;;5019439;28;20671;-86
2023/01/20 06:56:25;;;;;;;29.98;16.83;;;1.30;99.90;;;;;;5024254;28;20236;-86
2023/01/20 06:58:52;;;;;;;30.50;16.80;;;;;;;;;;5037658;28;20228;-86
2023/01/20 07:01:23;;;;;;;29.08;16.50;;;1.30;99.90;;;;;;5037465;28;20291;-85
2023/01/20 07:03:50;;;;;;;39.95;17.67;;;1.20;99.90;;;;;;5036327;28;20276;-85
2023/01/20 07:06:20;;;;;;;32.08;16.95;;;1.00;99.90;;;;;;5037347;28;20251;-86
2023/01/20 07:08:47;;;;;;;34.97;16.80;;;;;;;;;;5022806;28;20287;-86
2023/01/20 07:11:14;;;;;;;28.55;16.42;;;0.80;1.00;;;;;;5018704;28;20607;-86
2023/01/20 07:13:42;;;;;;;30.23;17.15;;;0.90;99.90;;;;;;5018933;28;20205;-86
2023/01/20 07:16:10;;;;;;;33.30;16.00;;;1.10;1.00;;;;;;5018597;28;20205;-87
2023/01/20 07:18:37;;;;;;;31.30;17.17;;;0.40;99.90;;;;;;5028566;28;20204;-86
2023/01/20 07:21:04;;;;;;;40.55;17.88;;;0.70;1.00;;;;;;5019136;28;20271;-86
2023/01/20 07:23:32;;;;;;;27.42;17.35;;;1.00;99.90;;;;;;5017796;28;20252;-85
2023/01/20 07:26:00;;;;;;;30.73;18.38;;;0.60;99.90;;;;;;5018034;28;20209;-85
2023/01/20 07:28:27;;;;;;;35.08;19.17;;;0.60;1.00;;;;;;5022454;28;20263;-86
2023/01/20 07:30:55;;;;;;;27.92;15.80;;;0.80;1.00;;;;;;5040581;28;20315;-85
2023/01/20 07:33:23;;;;;;;31.85;17.40;;;;;;;;;;5040387;28;20245;-85
2023/01/20 07:35:53;;;;;;;32.65;18.00;;;1.20;1.00;;;;;;5039590;28;20264;-85
2023/01/20 07:38:20;;;;;;;31.05;17.02;;;1.40;1.00;;;;;;5017669;28;20212;-86
2023/01/20 07:40:48;;;;;;;28.20;17.48;;;;;;;;;;5017891;28;20204;-86
2023/01/20 07:43:14;;;;;;;37.53;18.05;;;0.80;99.90;;;;;;5017298;28;20319;-86
2023/01/20 07:45:41;;;;;;;40.20;17.83;;;0.80;99.90;;;;;;5021387;28;20231;-86
2023/01/20 07:48:09;;;;;;;37.72;18.17;;;0.90;99.90;;;;;;5031139;28;20284;-86
2023/01/20 07:50:37;;;;;;;49.28;33.17;;;1.20;99.90;;;;;;5036112;28;20239;-86
2023/01/20 07:53:04;;;;;;;37.13;21.45;;;0.90;99.90;;;;;;5038329;28;20224;-86
2023/01/20 07:55:31;;;;;;;35.10;21.50;;;1.20;1.00;;;;;;5038987;28;20207;-86
2023/01/20 07:57:58;;;;;;;30.63;17.23;;;1.00;99.90;;;;;;5035523;28;20212;-86
2023/01/20 08:00:25;;;;;;;30.02;15.65;;;0.90;99.90;;;;;;5030957;28;20197;-85
2023/01/20 08:02:52;;;;;;;27.33;16.35;;;;;;;;;;5021803;28;20228;-86
2023/01/20 08:05:21;;;;;;;27.48;16.83;;;0.80;99.90;;;;;;5019014;28;20204;-86
2023/01/20 08:07:50;;;;;;;40.47;18.38;;;1.00;1.00;;;;;;5018415;28;20296;-87
2023/01/20 08:10:17;;;;;;;33.65;17.65;;;1.10;99.90;;;;;;5017851;28;20205;-87
2023/01/20 08:12:44;;;;;;;32.80;17.65;;;1.20;1.00;;;;;;5018706;28;20204;-86
2023/01/20 08:15:11;;;;;;;38.97;19.10;;;0.90;99.90;;;;;;5017880;28;20211;-86
2023/01/20 08:17:38;;;;;;;38.10;18.60;;;0.90;1.00;;;;;;5029024;28;20228;-86
2023/01/20 08:20:06;;;;;;;38.58;17.95;;;0.80;1.00;;;;;;5037628;28;20215;-86
2023/01/20 08:22:35;;;;;;;37.67;16.73;;;1.00;99.90;;;;;;5031519;28;20233;-86
2023/01/20 08:25:02;;;;;;;42.97;20.48;;;0.80;99.90;;;;;;5024880;28;20236;-86
2023/01/20 08:27:29;;;;;;;42.00;19.30;;;;;;;;;;5036821;28;20272;-86
2023/01/20 08:29:56;;;;;;;43.92;18.42;;;0.90;1.00;;;;;;5030875;28;20578;-86
2023/01/20 08:32:23;;;;;;;34.42;16.83;;;;;;;;;;5021670;28;20232;-86
2023/01/20 08:34:50;;;;;;;41.70;19.50;;;;;;;;;;5020989;28;20209;-86
2023/01/20 08:37:18;;;;;;;31.85;17.52;;;;;;;;;;5020994;28;20360;-86
2023/01/20 08:39:46;;;;;;;34.42;17.45;;;1.00;99.90;;;;;;5024262;28;20287;-87
2023/01/20 08:42:13;;;;;;;34.17;16.75;;;;;;;;;;5021900;28;20278;-89
2023/01/20 08:44:40;;;;;;;25.92;15.50;;;1.00;99.90;;;;;;5021360;28;20276;-87
2023/01/20 08:47:07;;;;;;;39.13;17.75;;;;;;;;;;5024439;28;20244;-87
2023/01/20 08:49:35;;;;;;;34.67;17.75;;;;;;;;;;5035766;28;20232;-86
2023/01/20 08:52:01;;;;;;;31.45;15.30;;;0.50;99.90;;;;;;5035469;28;20647;-86
2023/01/20 08:54:33;;;;;;;33.58;14.50;;;0.30;99.90;;;;;;5030601;28;20236;-88
2023/01/20 08:57:01;;;;;;;29.42;15.93;;;0.30;1.00;;;;;;5018749;28;20228;-88
2023/01/20 08:59:28;;;;;;;37.90;19.08;;;0.70;99.90;;;;;;5016629;28;20197;-88
2023/01/20 09:01:55;;;;;;;34.00;18.20;;;0.80;1.00;;;;;;5020346;28;20215;-87
2023/01/20 09:04:22;;;;;;;34.25;16.65;;;1.10;1.00;;;;;;5021444;28;20259;-87
2023/01/20 09:06:51;;;;;;;34.85;18.33;;;0.90;99.90;;;;;;5018834;28;20232;-87
2023/01/20 09:09:20;;;;;;;36.45;19.00;;;0.70;99.90;;;;;;5018352;28;20573;-88
2023/01/20 09:11:50;;;;;;;37.83;18.42;;;-0.10;99.90;;;;;;5026237;28;20246;-87
2023/01/20 09:14:19;;;;;;;30.95;18.13;;;;;;;;;;5019587;28;20613;-87
2023/01/20 09:16:46;;;;;;;30.83;18.02;;;1.00;99.90;;;;;;5037951;28;20228;-86
2023/01/20 09:19:13;;;;;;;42.65;19.70;;;1.20;99.90;;;;;;5038296;28;20211;-87
2023/01/20 09:21:39;;;;;;;35.95;17.52;;;1.10;99.90;;;;;;5030372;28;20200;-87
2023/01/20 09:24:07;;;;;;;34.75;17.60;;;0.60;99.90;;;;;;5038051;28;20235;-87
2023/01/20 09:26:38;;;;;;;34.67;18.90;;;;;;;;;;5037779;28;20216;-87
2023/01/20 09:29:08;;;;;;;33.25;15.80;;;1.10;99.90;;;;;;5034101;28;20185;-87
2023/01/20 09:31:38;;;;;;;41.75;18.70;;;0.90;99.90;;;;;;5029397;28;20219;-87
2023/01/20 09:34:05;;;;;;;39.05;19.05;;;;;;;;;;5027016;28;20206;-88
2023/01/20 09:36:32;;;;;;;38.80;19.42;;;1.30;99.90;;;;;;5018766;28;20221;-87
2023/01/20 09:44:48;;;;;;;55.70;19.88;;;1.40;99.90;;;;;;5038006;28;20172;-87
2023/01/20 09:47:29;;;;;;;45.53;20.65;;;0.00;69.60;;;;;;5038221;28;20270;-87
2023/01/20 09:53:06;;;;;;;36.20;19.48;;;1.20;1.00;;;;;;5033777;28;20231;-83
2023/01/20 09:55:48;;;;;;;38.63;20.42;;;1.20;6.80;;;;;;5021046;28;20279;-87
2023/01/20 09:58:24;;;;;;;37.08;21.02;;;1.20;99.90;;;;;;5018765;28;20232;-87
2023/01/20 10:00:57;;;;;;;45.15;24.30;;;1.60;99.90;;;;;;5018872;28;20646;-87
2023/01/20 10:03:35;;;;;;;39.20;21.27;;;1.30;99.90;;;;;;5019659;28;20272;-86
2023/01/20 10:06:07;;;;;;;35.33;19.17;;;1.40;1.00;;;;;;5016574;28;20710;-87
2023/01/20 10:08:41;;;;;;;33.85;19.58;;;1.30;99.90;;;;;;5017917;28;20699;-87
2023/01/20 10:11:12;;;;;;;35.00;19.17;;;1.30;99.90;;;;;;5018353;28;20184;-87
2023/01/20 10:13:46;;;;;;;34.80;19.25;;;1.40;1.00;;;;;;5020624;28;20208;-87
2023/01/20 10:16:22;;;;;;;38.25;20.52;;;1.00;99.90;;;;;;5028948;28;20236;-87
2023/01/20 10:18:55;;;;;;;79.22;24.90;;;1.00;1.00;;;;;;5037605;28;20271;-87
2023/01/20 10:21:29;;;;;;;55.45;25.33;;;1.60;1.00;;;;;;5025714;28;20209;-87
2023/01/20 10:24:00;;;;;;;69.35;24.33;;;1.50;99.90;;;;;;5029884;28;20212;-87
2023/01/20 10:26:32;;;;;;;54.85;22.88;;;1.30;99.90;;;;;;5019862;28;20247;-87
2023/01/20 10:29:01;;;;;;;49.70;24.08;;;1.50;1.00;;;;;;5018840;28;20211;-86
2023/01/20 10:31:30;;;;;;;38.28;21.42;;;1.70;29.50;;;;;;5019521;28;20255;-87
2023/01/20 10:34:06;;;;;;;39.58;23.48;;;1.20;1.00;;;;;;5019864;28;20288;-86
2023/01/20 10:36:34;;;;;;;47.85;23.30;;;1.50;1.00;;;;;;5032514;28;20255;-86
2023/01/20 10:39:09;;;;;;;47.25;23.38;;;1.40;99.90;;;;;;5030685;28;20211;-86
2023/01/20 10:41:42;;;;;;;43.05;22.98;;;1.50;1.00;;;;;;5035211;28;20192;-86
2023/01/20 10:44:12;;;;;;;55.97;25.48;;;1.70;99.90;;;;;;5031102;28;20212;-87
2023/01/20 10:46:53;;;;;;;44.75;24.70;;;1.80;99.90;;;;;;5019939;28;20287;-86
2023/01/20 10:49:44;;;;;;;47.30;24.10;;;1.50;1.00;;;;;;5023728;28;20220;-87
2023/01/20 10:52:26;;;;;;;56.17;24.83;;;1.60;1.00;;;;;;5020287;28;20225;-87
2023/01/20 10:55:05;;;;;;;51.47;25.92;;;1.80;99.90;;;;;;5019668;28;20612;-87
2023/01/20 10:57:33;;;;;;;51.25;24.35;;;1.60;99.90;;;;;;5021442;28;20299;-87
2023/01/20 11:00:02;;;;;;;49.85;25.90;;;1.60;16.40;;;;;;5039780;28;20252;-86
2023/01/20 11:02:33;;;;;;;45.10;23.48;;;1.90;1.00;;;;;;5038688;28;20196;-88
2023/01/20 11:05:09;;;;;;;45.63;24.65;;;2.00;99.90;;;;;;5037275;28;20241;-87
2023/01/20 11:07:36;;;;;;;39.78;24.73;;;2.20;1.00;;;;;;5031433;28;20290;-87
2023/01/20 11:10:15;;;;;;;58.75;24.40;;;1.80;1.00;;;;;;5022909;28;20208;-87
2023/01/20 11:12:43;;;;;;;42.47;20.10;;;1.80;99.90;;;;;;5020417;28;20196;-88
2023/01/20 11:15:17;;;;;;;52.20;21.83;;;2.10;1.00;;;;;;5021262;28;20660;-87
2023/01/20 11:17:44;;;;;;;42.15;21.17;;;2.30;15.60;;;;;;5020362;28;20710;-88
2023/01/20 11:20:20;;;;;;;46.60;22.90;;;1.90;1.00;;;;;;5020091;28;20292;-87
2023/01/20 11:22:49;;;;;;;39.13;22.38;;;1.30;1.00;;;;;;5019898;28;20188;-88
2023/01/20 11:25:24;;;;;;;43.95;22.42;;;1.90;1.00;;;;;;5021515;28;20205;-87
2023/01/20 11:27:52;;;;;;;37.85;22.60;;;1.80;99.90;;;;;;5024342;28;20295;-87
2023/01/20 11:30:25;;;;;;;44.10;22.98;;;1.50;1.00;;;;;;5039017;28;20253;-87
2023/01/20 11:33:08;;;;;;;41.25;23.20;;;1.90;99.90;;;;;;5039606;28;20204;-87
2023/01/20 11:35:37;;;;;;;43.30;21.92;;;;;;;;;;5039810;28;20212;-87
2023/01/20 11:38:22;;;;;;;33.35;21.80;;;2.10;1.00;;;;;;5039494;28;20229;-87
2023/01/20 11:40:53;;;;;;;50.40;24.75;;;2.20;1.00;;;;;;5038426;28;20252;-87
2023/01/20 11:43:31;;;;;;;46.65;23.88;;;2.50;1.00;;;;;;5035687;28;20208;-87
2023/01/20 11:46:20;;;;;;;38.50;21.40;;;2.00;99.90;;;;;;5031222;28;20211;-87
2023/01/20 11:48:47;;;;;;;43.50;23.52;;;1.90;99.90;;;;;;5030559;28;20249;-87
2023/01/20 11:51:24;;;;;;;45.22;23.58;;;2.30;1.00;;;;;;5028329;28;20204;-88
2023/01/20 11:53:51;;;;;;;40.20;23.00;;;1.90;99.90;;;;;;5027743;28;20212;-88
2023/01/20 11:56:22;;;;;;;55.55;22.85;;;2.50;99.90;;;;;;5025081;28;20311;-87
2023/01/20 11:58:53;;;;;;;48.80;22.63;;;2.50;1.00;;;;;;5025517;28;20208;-87
2023/01/20 12:01:25;;;;;;;44.88;25.38;;;2.00;99.90;;;;;;5020909;28;20228;-87
2023/01/20 12:04:22;;;;;;;42.03;22.58;;;2.10;1.00;;;;;;5020578;28;20204;-88
2023/01/20 12:06:58;;;;;;;41.42;21.63;;;2.30;99.90;;;;;;5021805;28;20251;-87
2023/01/20 12:09:29;;;;;;;49.10;22.88;;;2.40;91.20;;;;;;5028273;28;20181;-87
2023/01/20 12:12:01;;;;;;;46.97;25.20;;;2.30;99.90;;;;;;5039912;28;20229;-87
2023/01/20 12:14:30;;;;;;;42.65;21.88;;;;;;;;;;5039783;28;20200;-87
2023/01/20 12:17:26;;;;;;;49.85;25.95;;;2.30;1.00;;;;;;5031772;28;20229;-88
2023/01/20 12:20:15;;;;;;;38.65;22.38;;;2.10;99.90;;;;;;5023966;28;20258;-90
2023/01/20 12:22:54;;;;;;;51.53;25.10;;;1.90;99.90;;;;;;5024380;28;20671;-86
2023/01/20 12:25:25;;;;;;;41.05;23.48;;;1.90;99.90;;;;;;5023940;28;20205;-86
2023/01/20 12:27:55;;;;;;;48.03;22.58;;;2.50;99.90;;;;;;5023960;28;20228;-87
2023/01/20 12:30:49;;;;;;;47.38;23.95;;;2.10;1.00;;;;;;5027672;28;20208;-87
2023/01/20 12:33:27;;;;;;;43.63;23.40;;;2.20;99.90;;;;;;5015856;28;20204;-88
2023/01/20 12:36:22;;;;;;;43.00;21.85;;;2.30;99.90;;;;;;5037779;28;20195;-87
2023/01/20 12:39:12;;;;;;;40.70;22.92;;;2.40;1.00;;;;;;5031974;28;20185;-87
2023/01/20 12:42:04;;;;;;;46.67;22.70;;;2.30;99.90;;;;;;5019346;28;20304;-87
2023/01/20 12:44:38;;;;;;;46.08;24.85;;;2.20;99.90;;;;;;5019204;28;20266;-88
2023/01/20 12:47:20;;;;;;;46.10;25.30;;;2.20;99.90;;;;;;5020922;28;20243;-88
2023/01/20 12:50:09;;;;;;;47.30;25.15;;;2.10;99.90;;;;;;5031146;28;20263;-87
2023/01/20 12:52:50;;;;;;;42.25;24.48;;;2.20;1.00;;;;;;5021749;28;20237;-88
2023/01/20 12:55:24;;;;;;;44.45;23.23;;;2.10;99.90;;;;;;5033427;28;20244;-87
2023/01/20 12:58:08;;;;;;;51.72;25.15;;;2.30;99.90;;;;;;5032456;28;20276;-87
2023/01/20 13:00:47;;;;;;;36.92;20.55;;;2.60;1.00;;;;;;5026179;28;20189;-87
2023/01/20 13:03:38;;;;;;;40.22;22.70;;;2.40;1.00;;;;;;5025674;28;20187;-87
2023/01/20 13:06:30;;;;;;;37.70;21.63;;;2.30;1.00;;;;;;5028653;28;20217;-87
2023/01/20 13:09:07;;;;;;;38.28;23.50;;;2.40;16.10;;;;;;5033019;28;20189;-86
2023/01/20 13:11:49;;;;;;;48.58;23.40;;;2.30;1.00;;;;;;5038142;28;20173;-86
2023/01/20 13:14:20;;;;;;;53.67;22.83;;;2.30;80.10;;;;;;5036750;28;20201;-86
2023/01/20 13:16:53;;;;;;;44.95;21.83;;;2.30;99.90;;;;;;5029543;28;20323;-87
2023/01/20 13:19:28;;;;;;;41.45;22.73;;;2.40;1.00;;;;;;5030814;28;20204;-87
2023/01/20 13:21:58;;;;;;;46.58;23.00;;;2.40;1.00;;;;;;5036706;28;20236;-86